ROTAER D-AMDT 37/19 Ver Mudanças

Teixeira de Freitas ( SNTF ) / TEIXEIRA DE FREITAS, BA 17 31 28S/039 40 06W
AD PUB Governo do Estado UTC-3 VFR L21 , L26 105 (344)

11 - L12 - ( 1460x30 ASPH 31/F/A/X/T L14 , L15 ) - L12 - 29

SBRE (CINDACTA 3)

RMK -

HORÁRIO DE FUNCIONAMENTO
  1. AD OPS VFR Noturna PPR e COOR (O/R) através TEL: (73) 2919955
INFORMAÇÃO METEOROLÓGICA FORNECIDA
  1. MET Estação de Radiodifusão Automática de Aeródromo (ERAA) FREQ 132.350MHZ.
  2. Usar código de localidade SNTF para acessar METAR/SPECI na REDEMET.
INFORMAÇÃO ADICIONAL
  1. Contatos telefônicos: (71) 3241-1982, (77) 8116-0829, (71) 9670-6361, (77) 9993-2336 e (77) 9909-5421 - São Francisco
TEMP (0)

Suplementos AIP (0)

NOTAM (0)

Nascer/Por do Sol

08:34

21:10


METAR

192000Z AUTO 08010KT CAVOK 29/22 Q1011=

TAF

191600Z 1918/2006 06008KT CAVOK TX32/1919Z TN23/2006Z BECMG 1920/1922 07005KT CAVOK BECMG 2001/2003 36003KT 9000 FEW014 BECMG 2005/2006 3000 BR FEW013 RMK PAY=


Cartas (0)


Rotas Preferenciais (0)